createdAt,value
2019-02-28T00:02:13.447Z,5.70
2019-02-28T00:04:44.202Z,5.70
2019-02-28T00:07:17.584Z,5.60
2019-02-28T00:09:48.011Z,5.60
2019-02-28T00:12:19.200Z,5.50
2019-02-28T00:14:50.556Z,5.60
2019-02-28T00:17:21.300Z,5.60
2019-02-28T00:19:52.027Z,5.70
2019-02-28T00:22:24.670Z,5.60
2019-02-28T00:24:55.136Z,5.60
2019-02-28T00:27:25.852Z,5.60
2019-02-28T00:29:56.794Z,5.80
2019-02-28T00:32:27.489Z,5.80
2019-02-28T00:34:58.226Z,6.00
2019-02-28T00:37:29.005Z,6.00
2019-02-28T00:39:59.668Z,6.00
2019-02-28T00:42:30.366Z,6.00
2019-02-28T00:45:02.141Z,5.90
2019-02-28T00:47:33.493Z,5.90
2019-02-28T00:50:06.859Z,5.90
2019-02-28T00:52:38.264Z,5.80
2019-02-28T00:55:09.003Z,5.80
2019-02-28T00:57:40.628Z,5.70
2019-02-28T01:00:12.113Z,5.70
2019-02-28T01:02:42.773Z,5.60
2019-02-28T01:05:14.137Z,5.70
2019-02-28T01:07:48.261Z,5.70
2019-02-28T01:10:17.445Z,5.80
2019-02-28T01:12:53.296Z,5.80
2019-02-28T01:15:20.567Z,5.80
2019-02-28T01:17:51.883Z,5.80
2019-02-28T01:20:22.617Z,5.70
2019-02-28T01:22:53.826Z,5.70
2019-02-28T01:25:24.484Z,5.60
2019-02-28T01:27:55.247Z,5.60
2019-02-28T01:30:25.874Z,5.50
2019-02-28T01:32:56.512Z,5.50
2019-02-28T01:35:27.216Z,5.50
2019-02-28T01:37:57.914Z,5.50
2019-02-28T01:40:28.741Z,5.50
2019-02-28T01:42:59.368Z,5.40
2019-02-28T01:45:30.023Z,5.30
2019-02-28T01:48:00.675Z,5.30
2019-02-28T01:50:31.338Z,5.30
2019-02-28T01:53:01.980Z,5.30
2019-02-28T01:55:32.618Z,5.30
2019-02-28T01:58:03.331Z,5.30
2019-02-28T02:00:34.034Z,5.20
2019-02-28T02:03:05.147Z,5.20
2019-02-28T02:05:35.814Z,5.10
2019-02-28T02:08:07.631Z,5.00
2019-02-28T02:10:38.773Z,5.00
2019-02-28T02:13:09.567Z,5.10
2019-02-28T02:15:40.938Z,5.20
2019-02-28T02:18:11.796Z,5.30
2019-02-28T02:20:42.958Z,5.30
2019-02-28T02:23:18.205Z,5.30
2019-02-28T02:25:47.728Z,5.30
2019-02-28T02:28:18.369Z,5.20
2019-02-28T02:30:50.883Z,5.20
2019-02-28T02:33:21.505Z,5.20
2019-02-28T02:35:52.171Z,5.10
2019-02-28T02:38:22.844Z,5.00
2019-02-28T02:40:59.028Z,5.10
2019-02-28T02:43:25.852Z,5.00
2019-02-28T02:45:56.510Z,5.00
2019-02-28T02:48:27.191Z,4.90
2019-02-28T02:50:57.839Z,4.80
2019-02-28T02:53:28.474Z,4.80
2019-02-28T02:56:03.533Z,4.80
2019-02-28T02:58:31.563Z,4.90
2019-02-28T03:01:02.941Z,4.80
2019-02-28T03:03:33.556Z,5.00
2019-02-28T03:06:12.241Z,5.30
2019-02-28T03:08:37.451Z,5.50
2019-02-28T03:11:08.196Z,5.80
2019-02-28T03:13:43.557Z,5.90
2019-02-28T03:16:12.108Z,6.00
2019-02-28T03:18:43.964Z,6.40
2019-02-28T03:21:15.501Z,6.40
2019-02-28T03:23:46.975Z,6.40
2019-02-28T03:26:17.625Z,6.50
2019-02-28T03:28:48.246Z,6.50
2019-02-28T03:31:18.844Z,6.40
2019-02-28T03:33:49.487Z,6.60
2019-02-28T03:36:20.113Z,6.60
2019-02-28T03:38:50.804Z,6.50
2019-02-28T03:41:21.428Z,6.60
2019-02-28T03:43:53.163Z,6.60
2019-02-28T03:46:23.780Z,6.60
2019-02-28T03:48:54.443Z,6.60
2019-02-28T03:51:28.416Z,6.60
2019-02-28T03:53:57.449Z,6.70
2019-02-28T03:56:28.245Z,6.60
2019-02-28T03:58:59.104Z,6.60
2019-02-28T04:01:29.711Z,6.60
2019-02-28T04:04:00.421Z,6.60
2019-02-28T04:06:31.138Z,6.60
2019-02-28T04:09:07.266Z,6.70
2019-02-28T04:11:35.023Z,6.60
2019-02-28T04:14:05.984Z,6.50
2019-02-28T04:16:36.653Z,6.50
2019-02-28T04:19:08.801Z,6.50
2019-02-28T04:21:46.256Z,6.50
2019-02-28T04:24:13.824Z,6.40
2019-02-28T04:26:44.835Z,6.40
2019-02-28T04:29:15.496Z,6.30
2019-02-28T04:31:46.385Z,6.30
2019-02-28T04:34:17.019Z,6.30
2019-02-28T04:36:47.697Z,6.30
2019-02-28T04:39:18.309Z,6.30
2019-02-28T04:41:48.999Z,6.20
2019-02-28T04:44:19.603Z,6.10
2019-02-28T04:46:50.879Z,6.20
2019-02-28T04:49:22.712Z,6.20
2019-02-28T04:51:53.479Z,6.20
2019-02-28T04:54:24.545Z,6.20
2019-02-28T04:56:56.549Z,6.30
2019-02-28T04:59:27.966Z,6.20
2019-02-28T05:01:58.663Z,6.20
2019-02-28T05:04:29.284Z,6.20
2019-02-28T05:06:59.910Z,6.10
2019-02-28T05:09:30.588Z,6.20
2019-02-28T05:12:02.395Z,6.40
2019-02-28T05:14:33.620Z,6.40
2019-02-28T05:17:04.238Z,6.40
2019-02-28T05:19:35.908Z,6.40
2019-02-28T05:22:08.499Z,6.40
2019-02-28T05:24:42.657Z,6.50
2019-02-28T05:27:11.870Z,6.40
2019-02-28T05:29:43.870Z,6.30
2019-02-28T05:32:14.868Z,6.40
2019-02-28T05:34:51.009Z,6.40
2019-02-28T05:37:19.652Z,6.40
2019-02-28T05:39:52.445Z,6.40
2019-02-28T05:42:24.608Z,6.30
2019-02-28T05:44:55.313Z,6.30
2019-02-28T05:47:26.120Z,6.30
2019-02-28T05:49:57.234Z,6.30
2019-02-28T05:52:30.485Z,6.30
2019-02-28T05:55:00.369Z,6.30
2019-02-28T05:57:32.710Z,6.30
2019-02-28T06:00:03.514Z,6.40
2019-02-28T06:02:34.202Z,6.30
2019-02-28T06:05:05.050Z,6.40
2019-02-28T06:07:36.397Z,6.50
2019-02-28T06:10:08.849Z,6.50
2019-02-28T06:12:43.645Z,6.60
2019-02-28T06:15:13.720Z,6.60
2019-02-28T06:17:44.453Z,6.60
2019-02-28T06:20:16.910Z,6.70
2019-02-28T06:22:48.151Z,6.70
2019-02-28T06:25:40.194Z,6.70
2019-02-28T06:28:12.059Z,6.70
2019-02-28T06:30:43.437Z,6.80
2019-02-28T06:33:14.089Z,6.70
2019-02-28T06:35:44.750Z,6.70
2019-02-28T06:38:16.219Z,6.70
2019-02-28T06:40:53.602Z,6.70
2019-02-28T06:43:24.306Z,6.70
2019-02-28T06:45:54.977Z,6.70
2019-02-28T06:48:26.632Z,6.80
2019-02-28T06:50:57.455Z,6.90
2019-02-28T06:53:31.068Z,7.00
2019-02-28T06:56:02.617Z,7.00
2019-02-28T06:58:33.965Z,7.10
2019-02-28T07:01:06.999Z,7.10
2019-02-28T07:03:38.995Z,7.20
2019-02-28T07:06:14.707Z,7.30
2019-02-28T07:08:47.450Z,7.40
2019-02-28T07:11:19.855Z,7.40
2019-02-28T07:13:52.650Z,7.50
2019-02-28T07:16:37.936Z,7.50
2019-02-28T07:19:11.762Z,7.70
2019-02-28T07:21:44.369Z,7.60
2019-02-28T07:24:15.307Z,7.80
2019-02-28T07:26:45.951Z,7.80
2019-02-28T07:29:16.612Z,7.90
2019-02-28T07:31:47.447Z,7.90
2019-02-28T07:34:21.958Z,8.00
2019-02-28T07:36:50.578Z,8.10
2019-02-28T07:39:21.216Z,8.10
2019-02-28T07:41:51.956Z,8.10
2019-02-28T07:44:22.838Z,8.10
2019-02-28T07:46:53.588Z,8.30
2019-02-28T07:49:25.935Z,8.30
2019-02-28T07:51:57.108Z,8.40
2019-02-28T07:54:28.651Z,8.50
2019-02-28T07:56:59.374Z,8.60
2019-02-28T07:59:30.509Z,8.60
2019-02-28T08:02:06.548Z,8.70
2019-02-28T08:04:38.101Z,8.90
2019-02-28T08:07:29.552Z,8.90
2019-02-28T08:10:01.782Z,8.80
2019-02-28T08:12:33.362Z,8.80
2019-02-28T08:15:05.798Z,9.00
2019-02-28T08:17:36.502Z,9.00
2019-02-28T08:20:07.939Z,9.10
2019-02-28T08:22:38.972Z,9.10
2019-02-28T08:25:11.461Z,9.10
2019-02-28T08:27:42.987Z,9.00
2019-02-28T08:30:19.426Z,9.00
2019-02-28T08:32:51.353Z,9.20
2019-02-28T08:35:22.004Z,9.10
2019-02-28T08:37:56.963Z,9.30
2019-02-28T08:40:26.758Z,9.30
2019-02-28T08:42:57.758Z,9.50
2019-02-28T08:45:32.606Z,9.50
2019-02-28T08:48:00.874Z,9.60
2019-02-28T08:50:31.520Z,9.70
2019-02-28T08:53:02.187Z,9.70
2019-02-28T08:55:32.876Z,9.70
2019-02-28T08:58:06.238Z,9.70
2019-02-28T09:00:37.643Z,9.90
2019-02-28T09:03:08.601Z,9.90
2019-02-28T09:05:39.293Z,10.00
2019-02-28T09:08:09.950Z,9.90
2019-02-28T09:10:43.764Z,9.90
2019-02-28T09:13:13.664Z,9.90
2019-02-28T09:15:44.691Z,10.00
2019-02-28T09:18:15.765Z,10.30
2019-02-28T09:20:46.434Z,10.10
2019-02-28T09:23:17.255Z,10.10
2019-02-28T09:25:48.403Z,10.30
2019-02-28T09:28:20.894Z,10.40
2019-02-28T09:30:52.495Z,10.50
2019-02-28T09:33:23.955Z,10.60
2019-02-28T09:35:54.836Z,10.80
2019-02-28T09:38:25.508Z,10.90
2019-02-28T09:40:56.236Z,10.80
2019-02-28T09:43:26.922Z,10.80
2019-02-28T09:45:57.815Z,10.90
2019-02-28T09:48:28.552Z,11.00
2019-02-28T09:51:00.884Z,11.00
2019-02-28T09:53:31.600Z,11.20
2019-02-28T09:56:02.310Z,11.10
2019-02-28T09:58:32.972Z,11.20
2019-02-28T10:01:05.033Z,11.40
2019-02-28T10:03:35.728Z,11.50
2019-02-28T10:06:06.485Z,11.70
2019-02-28T10:08:37.996Z,11.80
2019-02-28T10:11:08.944Z,11.80
2019-02-28T10:13:39.845Z,11.90
2019-02-28T10:16:13.554Z,11.90
2019-02-28T10:18:52.061Z,11.90
2019-02-28T10:21:26.147Z,12.10
2019-02-28T10:23:57.910Z,12.10
2019-02-28T10:26:28.899Z,12.20
2019-02-28T10:29:01.181Z,12.20
2019-02-28T10:31:38.016Z,12.30
2019-02-28T10:34:04.833Z,12.30
2019-02-28T10:36:35.556Z,12.50
2019-02-28T10:39:08.934Z,12.50
2019-02-28T10:41:40.464Z,12.50
2019-02-28T10:44:11.227Z,12.40
2019-02-28T10:46:43.430Z,12.30
2019-02-28T10:49:14.213Z,12.40
2019-02-28T10:51:49.574Z,12.40
2019-02-28T10:54:17.668Z,12.50
2019-02-28T10:56:48.528Z,12.60
2019-02-28T10:59:21.339Z,12.70
2019-02-28T11:01:52.024Z,12.60
2019-02-28T11:04:24.004Z,12.40
2019-02-28T11:06:54.938Z,12.60
2019-02-28T11:09:29.050Z,12.70
2019-02-28T11:12:00.098Z,12.60
2019-02-28T11:14:30.937Z,12.60
2019-02-28T11:17:01.760Z,12.50
2019-02-28T11:19:32.561Z,12.40
2019-02-28T11:22:04.914Z,12.70
2019-02-28T11:24:36.093Z,12.80
2019-02-28T11:27:08.924Z,12.90
2019-02-28T11:29:41.018Z,13.00
2019-02-28T11:32:12.776Z,13.10
2019-02-28T11:34:45.829Z,13.30
2019-02-28T11:37:16.890Z,13.10
2019-02-28T11:39:47.927Z,13.30
2019-02-28T11:42:18.818Z,13.30
2019-02-28T11:44:49.711Z,13.30
2019-02-28T11:47:23.296Z,13.40
2019-02-28T11:49:54.279Z,13.30
2019-02-28T11:52:27.339Z,13.50
2019-02-28T11:54:58.837Z,13.60
2019-02-28T11:57:29.640Z,13.60
2019-02-28T12:00:01.400Z,13.60
2019-02-28T12:02:32.462Z,13.80
2019-02-28T12:05:03.288Z,13.80
2019-02-28T12:07:35.025Z,13.80
2019-02-28T12:10:07.081Z,13.80
2019-02-28T12:12:38.144Z,13.90
2019-02-28T12:15:11.379Z,14.00
2019-02-28T12:17:42.219Z,14.00
2019-02-28T12:20:14.127Z,13.90
2019-02-28T12:22:49.376Z,13.90
2019-02-28T12:25:20.188Z,14.00
2019-02-28T12:27:50.826Z,14.00
2019-02-28T12:30:25.206Z,14.00
2019-02-28T12:32:56.586Z,14.10
2019-02-28T12:35:28.186Z,14.10
2019-02-28T12:37:59.048Z,14.20
2019-02-28T12:40:30.907Z,14.30
2019-02-28T12:43:01.715Z,14.30
2019-02-28T12:45:35.376Z,14.40
2019-02-28T12:48:06.437Z,14.30
2019-02-28T12:50:37.329Z,14.40
2019-02-28T12:53:08.056Z,14.30
2019-02-28T12:55:40.112Z,14.20
2019-02-28T12:58:11.773Z,14.20
2019-02-28T13:00:43.492Z,14.20
2019-02-28T13:03:19.137Z,14.30
2019-02-28T13:05:48.161Z,14.30
2019-02-28T13:08:19.395Z,14.30
2019-02-28T13:10:51.660Z,14.30
2019-02-28T13:13:27.715Z,14.10
2019-02-28T13:15:56.042Z,14.00
2019-02-28T13:18:27.162Z,14.00
2019-02-28T13:20:58.756Z,13.90
2019-02-28T13:23:32.820Z,13.90
2019-02-28T13:26:02.615Z,14.10
2019-02-28T13:28:33.534Z,14.10
2019-02-28T13:31:04.927Z,14.30
2019-02-28T13:33:35.931Z,14.50
2019-02-28T13:36:07.358Z,14.60
2019-02-28T13:38:38.447Z,14.60
2019-02-28T13:41:09.264Z,14.90
2019-02-28T13:43:40.167Z,15.00
2019-02-28T13:46:12.931Z,14.80
2019-02-28T13:48:43.740Z,14.70
2019-02-28T13:51:14.623Z,14.70
2019-02-28T13:53:45.321Z,14.50
2019-02-28T13:56:17.999Z,14.30
2019-02-28T13:58:48.776Z,14.40
2019-02-28T14:01:20.350Z,14.50
2019-02-28T14:03:52.423Z,14.50
2019-02-28T14:06:33.529Z,14.50
2019-02-28T14:09:06.086Z,14.40
2019-02-28T14:11:38.263Z,14.60
2019-02-28T14:14:08.993Z,14.70
2019-02-28T14:16:39.686Z,15.10
2019-02-28T14:19:10.567Z,15.00
2019-02-28T14:21:42.242Z,15.00
2019-02-28T14:24:12.944Z,14.90
2019-02-28T14:26:46.550Z,14.70
2019-02-28T14:29:16.578Z,14.60
2019-02-28T14:31:47.516Z,14.50
2019-02-28T14:34:18.282Z,14.30
2019-02-28T14:36:49.395Z,14.10
2019-02-28T14:39:20.944Z,14.00
2019-02-28T14:41:51.780Z,14.00
2019-02-28T14:44:22.433Z,13.90
2019-02-28T14:46:54.050Z,13.90
2019-02-28T14:49:24.821Z,13.80
2019-02-28T14:51:55.466Z,13.70
2019-02-28T14:54:26.135Z,13.50
2019-02-28T14:56:56.843Z,13.40
2019-02-28T14:59:28.601Z,13.20
2019-02-28T15:02:00.051Z,13.10
2019-02-28T15:04:30.715Z,13.10
2019-02-28T15:07:03.150Z,13.00
2019-02-28T15:09:34.029Z,12.90
2019-02-28T15:12:04.779Z,12.90
2019-02-28T15:14:36.494Z,12.90
2019-02-28T15:17:07.694Z,12.80
2019-02-28T15:19:38.684Z,12.70
2019-02-28T15:22:09.415Z,12.60
2019-02-28T15:24:43.765Z,12.50
2019-02-28T15:27:14.152Z,12.40
2019-02-28T15:29:44.944Z,12.20
2019-02-28T15:32:17.225Z,12.00
2019-02-28T15:34:48.607Z,12.10
2019-02-28T15:37:19.324Z,11.90
2019-02-28T15:39:50.758Z,11.80
2019-02-28T15:42:21.535Z,11.70
2019-02-28T15:44:52.251Z,11.50
2019-02-28T15:47:24.067Z,11.50
2019-02-28T15:49:54.778Z,11.40
2019-02-28T15:52:25.618Z,11.30
2019-02-28T15:54:56.957Z,11.10
2019-02-28T15:57:30.237Z,11.20
2019-02-28T16:00:01.073Z,11.10
2019-02-28T16:02:31.718Z,11.00
2019-02-28T16:05:05.414Z,10.90
2019-02-28T16:07:34.822Z,10.80
2019-02-28T16:10:06.187Z,10.70
2019-02-28T16:12:37.444Z,10.60
2019-02-28T16:15:11.985Z,10.50
2019-02-28T16:17:42.646Z,10.40
2019-02-28T16:20:13.608Z,10.30
2019-02-28T16:22:45.474Z,10.30
2019-02-28T16:25:20.550Z,10.10
2019-02-28T16:27:51.232Z,10.10
2019-02-28T16:30:22.175Z,10.10
2019-02-28T16:32:52.859Z,10.00
2019-02-28T16:35:23.735Z,10.00
2019-02-28T16:37:55.471Z,9.90
2019-02-28T16:40:27.148Z,9.80
2019-02-28T16:42:57.969Z,9.80
2019-02-28T16:45:37.552Z,9.80
2019-02-28T16:48:07.881Z,9.60
2019-02-28T16:50:39.133Z,9.60
2019-02-28T16:53:14.952Z,9.50
2019-02-28T16:55:43.004Z,9.50
2019-02-28T16:58:14.856Z,9.40
2019-02-28T17:00:46.429Z,9.30
2019-02-28T17:03:17.114Z,9.40
2019-02-28T17:05:47.818Z,9.30
2019-02-28T17:08:19.538Z,9.20
2019-02-28T17:10:50.858Z,9.20
2019-02-28T17:13:43.305Z,9.20
2019-02-28T17:16:37.076Z,9.20
2019-02-28T17:19:08.717Z,9.20
2019-02-28T17:21:40.873Z,9.10
2019-02-28T17:24:12.298Z,9.10
2019-02-28T17:26:56.334Z,9.00
2019-02-28T17:29:35.264Z,8.90
2019-02-28T17:32:06.270Z,8.90
2019-02-28T17:34:37.013Z,8.90
2019-02-28T17:37:07.755Z,8.80
2019-02-28T17:39:38.678Z,8.80
2019-02-28T17:42:14.868Z,8.70
2019-02-28T17:45:16.415Z,8.70
2019-02-28T17:48:36.257Z,8.70
2019-02-28T17:51:49.809Z,8.60
2019-02-28T17:55:10.705Z,8.50
2019-02-28T17:58:24.868Z,8.40
2019-02-28T18:01:29.886Z,8.30
2019-02-28T18:04:49.562Z,8.10
2019-02-28T18:08:04.862Z,7.90
2019-02-28T18:11:30.890Z,7.70
2019-02-28T18:15:18.441Z,7.60
2019-02-28T18:18:41.639Z,7.50
2019-02-28T18:22:20.485Z,7.40
2019-02-28T18:25:38.734Z,7.30
2019-02-28T18:28:43.701Z,7.20
2019-02-28T18:31:22.075Z,7.10
2019-02-28T18:34:20.651Z,7.00
2019-02-28T18:36:52.709Z,7.00
2019-02-28T18:41:51.138Z,6.90
2019-02-28T18:44:27.328Z,6.70
2019-02-28T18:46:58.026Z,6.60
2019-02-28T18:49:29.382Z,6.50
2019-02-28T18:52:00.839Z,6.60
2019-02-28T18:54:31.644Z,6.50
2019-02-28T18:57:04.478Z,6.40
2019-02-28T18:59:35.510Z,6.30
2019-02-28T19:02:06.470Z,6.20
2019-02-28T19:04:37.263Z,6.10
2019-02-28T19:07:08.646Z,6.00
2019-02-28T19:09:40.347Z,6.00
2019-02-28T19:12:11.344Z,5.90
2019-02-28T19:14:42.097Z,5.80
2019-02-28T19:17:13.271Z,5.70
2019-02-28T19:19:44.468Z,5.60
2019-02-28T19:22:15.136Z,5.60
2019-02-28T19:24:46.719Z,5.50
2019-02-28T19:27:18.435Z,5.40
2019-02-28T19:29:49.196Z,5.30
2019-02-28T19:32:19.821Z,5.30
2019-02-28T19:34:59.975Z,5.20
2019-02-28T19:37:39.256Z,5.20
2019-02-28T19:40:20.650Z,5.20
2019-02-28T19:43:03.374Z,5.10
2019-02-28T19:45:47.453Z,5.10
2019-02-28T19:48:27.118Z,5.20
2019-02-28T19:51:07.332Z,5.20
2019-02-28T19:53:49.267Z,5.30
2019-02-28T19:56:30.660Z,5.30
2019-02-28T19:59:14.899Z,5.40
2019-02-28T20:01:56.011Z,5.40
2019-02-28T20:04:37.881Z,5.40
2019-02-28T20:07:19.599Z,5.40
2019-02-28T20:09:51.959Z,5.40
2019-02-28T20:12:22.607Z,5.50
2019-02-28T20:14:53.583Z,5.40
2019-02-28T20:17:24.253Z,5.50
2019-02-28T20:19:55.251Z,5.60
2019-02-28T20:22:25.954Z,5.60
2019-02-28T20:24:57.770Z,5.70
2019-02-28T20:27:28.435Z,5.80
2019-02-28T20:30:03.317Z,5.80
2019-02-28T20:32:34.132Z,5.80
2019-02-28T20:35:06.302Z,5.80
2019-02-28T20:37:37.058Z,5.80
2019-02-28T20:40:11.215Z,5.80
2019-02-28T20:42:42.605Z,5.80
2019-02-28T20:45:17.219Z,5.90
2019-02-28T20:47:47.877Z,5.90
2019-02-28T20:50:26.911Z,5.90
2019-02-28T20:52:57.590Z,5.80
2019-02-28T20:55:28.216Z,5.90
2019-02-28T20:57:58.883Z,5.90
2019-02-28T21:00:29.572Z,5.90
2019-02-28T21:03:00.238Z,6.00
2019-02-28T21:05:30.961Z,6.00
2019-02-28T21:08:01.644Z,6.00
2019-02-28T21:10:32.379Z,6.00
2019-02-28T21:13:03.086Z,6.00
2019-02-28T21:15:33.739Z,5.90
2019-02-28T21:18:04.387Z,6.00
2019-02-28T21:20:35.185Z,6.00
2019-02-28T21:23:05.782Z,6.00
2019-02-28T21:25:36.538Z,5.90
2019-02-28T21:28:07.267Z,5.90
2019-02-28T21:30:38.360Z,5.90
2019-02-28T21:33:09.055Z,5.80
2019-02-28T21:35:40.202Z,5.90
2019-02-28T21:38:10.907Z,5.90
2019-02-28T21:40:41.744Z,5.90
2019-02-28T21:43:12.498Z,5.90
2019-02-28T21:45:43.452Z,6.00
2019-02-28T21:48:14.182Z,6.00
2019-02-28T21:50:44.824Z,5.90
2019-02-28T21:53:16.106Z,5.90
2019-02-28T21:55:48.231Z,5.90
2019-02-28T21:58:19.267Z,5.90
2019-02-28T22:00:50.045Z,5.90
2019-02-28T22:03:20.874Z,5.80
2019-02-28T22:05:51.836Z,5.80
2019-02-28T22:08:22.570Z,5.90
2019-02-28T22:10:53.497Z,5.80
2019-02-28T22:13:33.995Z,5.80
2019-02-28T22:16:04.957Z,5.80
2019-02-28T22:18:35.626Z,5.80
2019-02-28T22:21:06.289Z,5.80
2019-02-28T22:23:36.931Z,5.90
2019-02-28T22:26:07.626Z,6.00
2019-02-28T22:28:40.521Z,5.90
2019-02-28T22:31:22.892Z,5.90
2019-02-28T22:34:07.906Z,5.90
2019-02-28T22:36:41.672Z,6.00
2019-02-28T22:39:13.107Z,5.90
2019-02-28T22:41:43.848Z,5.90
2019-02-28T22:44:15.291Z,5.90
2019-02-28T22:46:46.251Z,5.90
2019-02-28T22:49:17.121Z,5.90
2019-02-28T22:51:49.168Z,5.80
2019-02-28T22:54:20.386Z,5.80
2019-02-28T22:56:52.272Z,5.80
2019-02-28T22:59:23.670Z,5.80
2019-02-28T23:01:55.513Z,5.80
2019-02-28T23:04:26.263Z,5.80
2019-02-28T23:06:57.499Z,5.80
2019-02-28T23:09:28.215Z,5.80
2019-02-28T23:11:58.967Z,5.70
2019-02-28T23:14:29.623Z,5.80
2019-02-28T23:17:01.851Z,5.80
2019-02-28T23:19:33.120Z,5.70
2019-02-28T23:22:03.871Z,5.70
2019-02-28T23:24:34.816Z,5.70
2019-02-28T23:27:19.872Z,5.60
2019-02-28T23:30:53.828Z,5.70
2019-02-28T23:33:24.990Z,5.70
2019-02-28T23:35:56.114Z,5.60
2019-02-28T23:38:26.873Z,5.60
2019-02-28T23:41:00.115Z,5.60
2019-02-28T23:43:31.184Z,5.60
2019-02-28T23:46:02.454Z,5.50
2019-02-28T23:48:33.091Z,5.50
2019-02-28T23:51:03.832Z,5.50
2019-02-28T23:53:34.527Z,5.50
2019-02-28T23:56:05.348Z,5.50
2019-02-28T23:58:36.021Z,5.50
